Forside
METAR-TAF:

METAR-TAF

Lufthavne :

Madeira Lufthavn

Funchal, Madeira, Portugal

Breddekreds: 32-41-52N, længdekreds: 016-46-28W, højde: 59 m

Aktuelle vejr

Denne rapport blev lavet for 31 minutter siden, kl. 12:00 UTC
Vind 9 kt fra nordnordøst, varierende mellem nord og østnordøst
Temperatur 17°C
Fugtighed 52%
Tryk 1030 hPa
Sigt 10 km eller mere
Spredte skyer i en højde af 1500 ft
Brudte skyer i en højde af 3000 ft

METAR: LPMA 221200Z 03009KT 360V070 9999 SCT015 BKN030 17/07 Q1030

Tid: 12:31 (12:31 UTC)

Vejrudsigter

Denne rapport blev lavet for 1 time og 1 minutter siden, kl. 11:30 UTC
Foreløbig gælder fra 22 på 12 UTC til 23 på 12 UTC
Vind 10 kt fra nord
Sigt 10 km eller mere
Spredte skyer i en højde af 1500 ft
Spredte skyer i en højde af 3000 ft

TAF: LPMA 221130Z 2212/2312 01010KT 9999 SCT015 SCT030

Vejrobservationer og prognoser fra mere end 4000 lufthavne (METAR og TAF).

De gule og røde prikker repræsenterer de meteorologiske stationer.

Flyt musen over at se navnet på stationen.

Så klik over at se vejr observationer og prognoser.

At skifte det kort: Klik på de grønne knapper med et sort kors for at zoome ind; på den grønne knap med en bindestreg for at zoome ud; eller på de grønne pile for tilstødende kort.


METAR-TAF: